ADDS METAR Data INFO
IDs: Format: Raw Decoded Include TAF

Data at: 0749 UTC 24 Oct 2017

KLOT 240735Z AUTO 26005KT 10SM OVC016 09/07 A2958 RMK AO2 T00850070
KLOT 240715Z AUTO 27007KT 10SM -DZ OVC018 09/07 A2959 RMK AO2 T00850073
KLOT 240655Z AUTO 29009G18KT 10SM DZ OVC018 09/07 A2959 RMK AO2 T00860072
KLOT 240635Z AUTO 29010G17KT 10SM DZ OVC018 09/08 A2959 RMK AO2 T00880075
KLOT 240615Z AUTO 28009KT 10SM BKN018 BKN040 OVC060 09/08 A2960 RMK AO2 T00900077
KLOT 240555Z AUTO 28011KT 10SM RA SCT010 SCT023 OVC050 09/08 A2961 RMK AO2 P0003 60009 T00900080 10112 20090 401150090
KLOT 240535Z AUTO 28009KT 10SM RA SCT010 BKN025 OVC050 09/09 A2961 RMK AO2 P0001 T00920085
KLOT 240515Z AUTO 27009KT 10SM DZ SCT010 OVC025 09/09 A2962 RMK AO2 T00930086
KLOT 240455Z AUTO 28010KT 10SM DZ SCT010 BKN039 OVC050 09/09 A2963 RMK AO2 P0004 T00930085
KLOT 240435Z AUTO 29010KT 10SM -RA SCT010 SCT015 OVC055 09/09 A2963 RMK AO2 P0002 T00930085
KLOT 240415Z AUTO 28012KT 10SM -RA SCT010 SCT018 OVC055 10/09 A2964 RMK AO2 P0001 T00950086
KLOT 240355Z AUTO 28013KT 10SM RA SCT044 OVC055 10/09 A2964 RMK AO2 P0002 T00970086
KLOT 240335Z AUTO 28011G16KT 10SM -RA OVC046 10/09 A2965 RMK AO2 P0002 T01000087
KLOT 240315Z AUTO 29012KT 10SM -RA OVC046 10/09 A2965 RMK AO2 P0001 T01010087
KLOT 240255Z AUTO 27011KT 10SM RA OVC044 11/09 A2966 RMK AO2 T01050087
KLOT 240235Z AUTO 28010G16KT 10SM -RA BKN046 OVC060 11/09 A2965 RMK AO2 T01110087
KLOT 240215Z AUTO 28010G17KT 10SM -RA SCT046 BKN060 OVC080 11/09 A2966 RMK AO2 T01110086
KLOT 240155Z AUTO 26009G14KT 10SM SCT049 OVC080 11/09 A2966 RMK AO2 T01060085
KLOT 240135Z AUTO 24005KT 10SM SCT049 SCT090 OVC110 11/09 A2966 RMK AO2 T01050085
KLOT 240115Z AUTO 23007KT 10SM OVC110 10/09 A2967 RMK AO2 T01000085
KLOT 240055Z AUTO 22004KT 10SM OVC110 10/09 A2967 RMK AO2 T00990085
KLOT 240035Z AUTO 22003KT 10SM OVC100 10/09 A2968 RMK AO2 T01010085
KLOT 240015Z AUTO 24004KT 10SM OVC100 10/08 A2968 RMK AO2 T01020082
KLOT 232355Z AUTO 25004KT 10SM OVC100 10/08 A2968 RMK AO2 T01020084 10115 20102
KLOT 232335Z AUTO 27004KT 10SM OVC100 10/08 A2967 RMK AO2 T01030082
KLOT 232315Z AUTO 28005KT 10SM OVC090 11/09 A2968 RMK AO2 T01060085
KLOT 232255Z AUTO 29006KT 10SM OVC090 11/09 A2969 RMK AO2 T01080094
KLOT 232235Z AUTO 27006KT 10SM BKN090 11/10 A2968 RMK AO2 T01080097
KLOT 232215Z AUTO 28006KT 10SM BKN090 11/10 A2967 RMK AO2 T01080096
KLOT 232155Z AUTO 28006KT 10SM OVC100 11/10 A2968 RMK AO2 T01100096
KLOT 232135Z AUTO 29008KT 10SM OVC100 11/10 A2970 RMK AO2 T01090095
KLOT 232115Z AUTO 29006KT 10SM SCT011 BKN110 11/09 A2971 RMK AO2 T01100094
KLOT 232055Z AUTO 27005KT 10SM CLR 11/09 A2972 RMK AO2 T01100093
KLOT 232035Z AUTO 28004KT 10SM SCT012 11/09 A2972 RMK AO2 T01100090
KLOT 232015Z AUTO 32006KT 10SM SCT012 11/09 A2971 RMK AO2 T01110093
KLOT 231955Z AUTO 30008KT 10SM OVC012 12/10 A2973 RMK AO2 T01150098
KLOT 231935Z AUTO 31009KT 10SM OVC012 11/10 A2972 RMK AO2 T01140096
KLOT 231915Z AUTO 32006KT 10SM OVC010 11/10 A2972 RMK AO2 T01120099
KLOT 231855Z AUTO 32007KT 10SM BKN010 BKN016 OVC110 11/10 A2974 RMK AO2 T01100098
KLOT 231835Z AUTO 36003KT 10SM OVC010 11/10 A2974 RMK AO2 T01080097
KLOT 231815Z AUTO 33008KT 10SM BKN010 BKN014 BKN120 11/10 A2976 RMK AO2 T01090099
KLOT 231755Z AUTO 34007KT 10SM SCT008 BKN120 11/10 A2976 RMK AO2 P0002 60020 T01080100 10110 20103
KLOT 231735Z AUTO 35007KT 10SM OVC008 11/10 A2976 RMK AO2 P0002 T01070101
KLOT 231715Z AUTO 31009KT 7SM RA BKN008 BKN050 OVC095 11/10 A2979 RMK AO2 P0001 T01070101
KLOT 231655Z AUTO 32008KT 10SM -RA SCT006 BKN015 OVC085 11/10 A2981 RMK AO2 P0003 T01080102
KLOT 231635Z AUTO 34005KT 10SM -RA SCT085 OVC090 11/10 A2981 RMK AO2 P0002 T01100102
KLOT 231615Z AUTO 01004KT 10SM -RA SCT060 OVC080 11/10 A2981 RMK AO2 P0001 T01100102
KLOT 231555Z AUTO 02004KT 10SM -RA SCT011 BKN060 OVC080 11/10 A2981 RMK AO2 P0003 T01100102
KLOT 231535Z AUTO 02005KT 7SM -RA SCT009 SCT013 OVC060 11/10 A2982 RMK AO2 P0002 T01090102
KLOT 231515Z AUTO 04009KT 7SM RA SCT008 SCT023 OVC060 11/10 A2981 RMK AO2 P0001 T01080102
KLOT 231455Z AUTO 02006KT 7SM RA BKN008 BKN027 OVC075 11/10 A2983 RMK AO2 P0003 60012 T01070102
KLOT 231435Z AUTO 03007KT 7SM -RA SCT008 BKN033 OVC075 11/10 A2984 RMK AO2 P0002 T01050100
KLOT 231415Z AUTO 02009KT 7SM -RA BKN006 BKN030 OVC075 11/10 A2984 RMK AO2 P0001 T01050100
KLOT 231355Z AUTO 03006KT 7SM -RA BKN006 BKN026 OVC075 11/10 A2986 RMK AO2 P0004 T01050100
KLOT 231335Z AUTO 36005KT 5SM -RA BKN006 BKN021 OVC065 11/10 A2987 RMK AO2 P0004 T01050100
KLOT 231315Z AUTO 01006KT 7SM RA SCT006 BKN017 OVC070 11/10 A2988 RMK AO2 P0002 T01050100
KLOT 231255Z AUTO 02005KT 7SM RA BKN009 BKN014 OVC070 11/10 A2987 RMK AO2 P0004 T01060101
KLOT 231235Z AUTO 36005KT 10SM -RA BKN009 OVC024 11/10 A2987 RMK AO2 P0002 T01050100
KLOT 231215Z AUTO 02007KT 10SM -RA BKN007 BKN024 OVC037 11/10 A2987 RMK AO2 P0001 T01050100
KLOT 231155Z AUTO 02009KT 10SM -RA OVC005 10/10 A2986 RMK AO2 P0003 60034 70063 T01030098 10105 20102
KLOT 231135Z AUTO 01010KT 10SM RA BKN005 BKN012 OVC021 10/10 A2987 RMK AO2 P0002 T01030098
KLOT 231115Z AUTO 01011KT 10SM -RA OVC005 10/10 A2988 RMK AO2 P0001 T01030100
KLOT 231055Z AUTO 01009KT 10SM -RA OVC005 10/10 A2989 RMK AO2 P0006 T01030100
KLOT 231035Z AUTO 01010KT 10SM RA OVC005 10/10 A2990 RMK AO2 P0004 T01030100
KLOT 231015Z AUTO 01009KT 10SM RA OVC005 10/10 A2990 RMK AO2 P0002 T01030100
KLOT 230955Z AUTO 02009KT 10SM -RA OVC005 10/10 A2991 RMK AO2 P0011 T01030099
KLOT 230935Z AUTO 01008KT 7SM RA BKN005 OVC015 10/10 A2992 RMK AO2 P0008 T01020099
KLOT 230915Z AUTO 01008KT 5SM RA BKN005 OVC009 10/10 A2993 RMK AO2 P0004 T01020098
KLOT 230855Z AUTO 35008KT 5SM RA OVC005 10/10 A2993 RMK AO2 P0006 60014 T01030100
KLOT 230835Z AUTO 01008KT 7SM RA OVC005 10/10 A2994 RMK AO2 P0003 T01040100
KLOT 230815Z AUTO 36005KT 5SM RA OVC005 10/10 A2994 RMK AO2 P0001 T01040100
KLOT 230755Z AUTO 02006KT 5SM RA OVC005 10/10 A2995 RMK AO2 P0004 T01030100
KLOT 230735Z AUTO 01006KT 5SM RA OVC005 10/10 A2995 RMK AO2 P0001 T01030100
KLOT 230715Z AUTO 01007KT 10SM -RA OVC005 10/10 A2996 RMK AO2 P0001 T01030100
KLOT 230655Z AUTO 36006KT 7SM -RA OVC005 10/10 A2997 RMK AO2 P0004 T01040100
KLOT 230635Z AUTO 36009KT 5SM RA OVC005 10/10 A2997 RMK AO2 P0003 T01030100
KLOT 230615Z AUTO 36006KT 7SM RA OVC007 11/10 A2998 RMK AO2 P0001 T01050100
KLOT 230555Z AUTO 01007KT 10SM -RA OVC007 11/10 A2998 RMK AO2 P0001 60021 T01050100 10108 20105
KLOT 230535Z AUTO 36005KT 7SM DZ OVC007 11/10 A2998 RMK AO2 P0001 T01050101
KLOT 230515Z AUTO 36006KT 7SM DZ OVC005 11/10 A2999 RMK AO2 P0001 T01060102
KLOT 230455Z AUTO 02004KT 7SM -RA OVC007 11/10 A2999 RMK AO2 P0006 T01060102
KLOT 230435Z AUTO 02005KT 7SM RA OVC011 11/10 A2999 RMK AO2 P0004 T01060101
KLOT 230415Z AUTO 01005KT 7SM -RA SCT006 OVC013 11/10 A3000 RMK AO2 P0001 T01060102
KLOT 230355Z AUTO 01006KT 7SM RA BKN006 BKN013 OVC026 11/10 A3001 RMK AO2 P0002 T01060102
KLOT 230335Z AUTO 01006KT 7SM -RA BKN010 BKN026 OVC100 11/10 A3002 RMK AO2 P0002 T01060102
KLOT 230315Z AUTO 36007KT 7SM -RA BKN012 BKN024 OVC070 11/10 A3003 RMK AO2 P0001 T01060102
KLOT 230255Z AUTO 33006KT 7SM RA OVC008 11/10 A3005 RMK AO2 P0007 60012 T01070102
KLOT 230235Z AUTO 35005KT 7SM +RA OVC008 11/10 A3005 RMK AO2 P0003 T01080102
KLOT 230215Z AUTO 01004KT 7SM DZ OVC008 11/10 A3004 RMK AO2 T01080102
KLOT 230155Z AUTO 05005KT 10SM DZ OVC008 11/10 A3004 RMK AO2 P0005 T01080101
KLOT 230135Z AUTO 05009KT 7SM -RA OVC008 11/10 A3003 RMK AO2 P0004 T01070100
KLOT 230115Z AUTO 05009KT 5SM RA OVC008 11/10 A3003 RMK AO2 P0003 T01080101
KLOT 230055Z AUTO 06010G14KT 10SM -DZ OVC008 11/10 A3003 RMK AO2 T01080100
KLOT 230035Z AUTO 07009KT 10SM -DZ BKN008 BKN030 OVC050 11/10 A3004 RMK AO2 T01080101
KLOT 230015Z AUTO 04009KT 10SM -DZ SCT008 BKN030 OVC050 11/10 A3004 RMK AO2 T01070100
KLOT 222355Z AUTO 03009KT 10SM BKN008 BKN022 OVC050 11/10 A3004 RMK AO2 P0003 60008 T01060100
KLOT 222335Z AUTO 03008KT 10SM DZ SCT006 BKN025 OVC049 11/10 A3005 RMK AO2 P0003 T01050099
KLOT 222315Z AUTO 02008KT 7SM RA BKN008 BKN013 OVC025 11/10 A3005 RMK AO2 P0002 T01060098
KLOT 222255Z AUTO 02007KT 7SM BKN008 BKN018 OVC032 11/10 A3004 RMK AO2 T01060100
KLOT 222235Z AUTO 01008KT 5SM DZ BKN008 OVC030 11/10 A3004 RMK AO2 T01050098
KLOT 222215Z AUTO 01008KT 5SM DZ SCT010 OVC026 11/10 A3004 RMK AO2 T01050096
KLOT 222155Z AUTO 01010KT 7SM DZ SCT010 OVC026 11/10 A3004 RMK AO2 P0002 T01050095
KLOT 222135Z AUTO 36012G16KT 5SM -RA BKN010 OVC024 10/10 A3003 RMK AO2 P0002 T01030095
KLOT 222115Z AUTO 36014G20KT 3SM RA OVC009 11/10 A3003 RMK AO2 P0001 T01070099
KLOT 222055Z AUTO 35015G21KT 3SM -DZ BKN007 BKN012 OVC020 11/10 A3001 RMK AO2 P0001 60003 T01100102
KLOT 222035Z AUTO 36011G16KT 2SM +DZ OVC007 12/11 A3001 RMK AO2 P0001 T01170110
KLOT 222015Z AUTO 34010G19KT 2 1/2SM DZ OVC007 12/11 A2999 RMK AO2 P0001 T01200111
KLOT 221955Z AUTO 33018G23KT 2 1/2SM DZ OVC007 12/12 A2997 RMK AO2 P0002 T01240116